createdAt,value
2023-01-05T00:02:08.336Z,23.58
2023-01-05T00:10:34.850Z,24.80
2023-01-05T00:18:55.137Z,62.22
2023-01-05T00:27:00.625Z,21.58
2023-01-05T00:35:09.525Z,41.55
2023-01-05T00:43:14.911Z,20.58
2023-01-05T00:51:22.958Z,27.45
2023-01-05T00:59:28.314Z,26.35
2023-01-05T01:07:36.716Z,29.35
2023-01-05T01:15:43.538Z,30.98
2023-01-05T01:23:52.083Z,31.77
2023-01-05T01:31:59.888Z,24.63
2023-01-05T01:40:08.701Z,21.85
2023-01-05T01:48:17.834Z,18.88
2023-01-05T01:56:30.116Z,19.55
2023-01-05T02:04:36.578Z,17.42
2023-01-05T02:13:00.600Z,20.65
2023-01-05T02:21:18.697Z,21.83
2023-01-05T02:29:54.756Z,20.90
2023-01-05T02:38:09.113Z,23.83
2023-01-05T02:46:16.263Z,24.70
2023-01-05T02:54:30.836Z,24.25
2023-01-05T03:02:37.682Z,26.27
2023-01-05T03:11:07.969Z,19.23
2023-01-05T03:19:28.358Z,20.75
2023-01-05T03:27:49.836Z,18.38
2023-01-05T03:36:00.373Z,27.13
2023-01-05T03:44:10.220Z,18.70
2023-01-05T03:52:18.010Z,19.98
2023-01-05T04:00:26.769Z,22.90
2023-01-05T04:08:39.930Z,29.98
2023-01-05T04:16:51.040Z,29.40
2023-01-05T04:25:00.685Z,25.92
2023-01-05T04:33:10.738Z,26.38
2023-01-05T04:41:17.094Z,27.25
2023-01-05T04:49:29.129Z,20.38
2023-01-05T04:57:35.114Z,20.88
2023-01-05T05:05:43.244Z,23.48
2023-01-05T05:13:51.507Z,18.13
2023-01-05T05:21:59.618Z,11.13
2023-01-05T05:30:06.914Z,10.38
2023-01-05T05:38:14.955Z,14.18
2023-01-05T05:46:20.348Z,15.77
2023-01-05T05:54:29.119Z,15.82
2023-01-05T06:02:34.559Z,13.23
2023-01-05T06:10:42.563Z,14.02
2023-01-05T06:19:03.261Z,12.00
2023-01-05T06:27:12.466Z,33.08
2023-01-05T06:35:21.096Z,18.15
2023-01-05T06:43:29.246Z,17.88
2023-01-05T06:51:34.555Z,21.08
2023-01-05T06:59:42.962Z,18.80
2023-01-05T07:07:49.345Z,17.83
2023-01-05T07:15:57.416Z,19.95
2023-01-05T07:24:03.345Z,16.92
2023-01-05T07:32:11.473Z,17.65
2023-01-05T07:40:16.883Z,16.80
2023-01-05T07:48:24.972Z,20.00
2023-01-05T07:56:30.509Z,17.33
2023-01-05T08:04:39.090Z,25.73
2023-01-05T08:12:57.224Z,21.60
2023-01-05T08:21:08.791Z,25.85
2023-01-05T08:29:14.279Z,26.73
2023-01-05T08:37:22.488Z,16.65
2023-01-05T08:45:27.992Z,22.20
2023-01-05T08:53:36.581Z,25.02
2023-01-05T09:01:42.411Z,19.80
2023-01-05T09:09:51.117Z,16.77
2023-01-05T09:17:57.746Z,17.05
2023-01-05T09:26:08.752Z,18.50
2023-01-05T09:34:14.585Z,17.95
2023-01-05T09:42:36.572Z,22.38
2023-01-05T09:50:41.999Z,18.77
2023-01-05T09:58:52.025Z,18.58
2023-01-05T10:07:04.591Z,23.33
2023-01-05T10:15:19.756Z,23.42
2023-01-05T10:23:40.783Z,21.88
2023-01-05T10:32:04.741Z,23.17
2023-01-05T10:40:24.604Z,18.45
2023-01-05T10:48:38.717Z,20.83
2023-01-05T10:56:44.150Z,21.65
2023-01-05T11:04:54.886Z,12.68
2023-01-05T11:13:06.578Z,12.55
2023-01-05T11:21:17.694Z,11.10
2023-01-05T11:29:34.963Z,11.25
2023-01-05T11:38:33.372Z,9.85
2023-01-05T11:46:57.407Z,15.25
2023-01-05T11:55:30.780Z,14.82
2023-01-05T12:04:02.215Z,20.23
2023-01-05T12:12:42.455Z,15.32
2023-01-05T12:21:03.790Z,17.95
2023-01-05T12:31:16.999Z,11.50
2023-01-05T12:38:25.972Z,19.15
2023-01-05T12:46:47.507Z,13.18
2023-01-05T12:54:58.490Z,9.05
2023-01-05T13:03:11.519Z,9.18
2023-01-05T13:11:22.821Z,10.30
2023-01-05T13:19:35.255Z,5.90
2023-01-05T13:27:42.885Z,6.22
2023-01-05T13:36:03.161Z,8.63
2023-01-05T13:44:37.828Z,8.27
2023-01-05T13:53:02.413Z,7.93
2023-01-05T14:01:11.316Z,10.40
2023-01-05T14:09:23.975Z,8.23
2023-01-05T14:17:53.812Z,8.68
2023-01-05T14:26:02.721Z,21.05
2023-01-05T14:34:15.831Z,8.95
2023-01-05T14:42:33.454Z,8.52
2023-01-05T14:50:47.690Z,6.20
2023-01-05T14:59:01.503Z,12.00
2023-01-05T15:07:20.720Z,13.38
2023-01-05T15:15:44.054Z,9.98
2023-01-05T15:24:11.883Z,9.65
2023-01-05T15:32:27.206Z,14.45
2023-01-05T15:40:35.254Z,15.80
2023-01-05T15:48:46.226Z,11.60
2023-01-05T15:56:54.549Z,12.95
2023-01-05T16:05:18.443Z,17.13
2023-01-05T16:22:04.171Z,13.75
2023-01-05T16:30:30.918Z,14.43
2023-01-05T16:38:39.272Z,11.05
2023-01-05T16:46:46.122Z,10.13
2023-01-05T16:55:27.548Z,11.02
2023-01-05T17:03:35.133Z,6.75
2023-01-05T17:11:43.302Z,9.27
2023-01-05T17:19:51.628Z,6.55
2023-01-05T17:27:59.568Z,5.22
2023-01-05T17:36:07.295Z,4.97
2023-01-05T17:44:15.892Z,5.32
2023-01-05T17:52:22.652Z,4.55
2023-01-05T18:00:35.115Z,8.60
2023-01-05T18:17:09.247Z,8.35
2023-01-05T18:25:15.447Z,5.68
2023-01-05T18:33:24.267Z,4.80
2023-01-05T18:41:29.976Z,6.10
2023-01-05T18:49:38.735Z,6.15
2023-01-05T18:57:44.411Z,6.88
2023-01-05T19:05:56.623Z,8.10
2023-01-05T19:14:04.612Z,7.75
2023-01-05T19:22:13.274Z,9.25
2023-01-05T19:30:20.635Z,11.75
2023-01-05T19:38:29.002Z,10.55
2023-01-05T19:46:35.725Z,9.90
2023-01-05T19:54:45.401Z,11.07
2023-01-05T20:02:58.276Z,10.77
2023-01-05T20:11:12.115Z,8.77
2023-01-05T20:19:19.345Z,10.05
2023-01-05T20:27:27.952Z,14.13
2023-01-05T20:35:33.534Z,9.35
2023-01-05T20:43:41.563Z,8.43
2023-01-05T20:51:47.221Z,9.40
2023-01-05T20:59:55.296Z,10.27
2023-01-05T21:08:01.060Z,11.15
2023-01-05T21:16:09.505Z,13.57
2023-01-05T21:24:16.144Z,9.25
2023-01-05T21:32:24.166Z,13.23
2023-01-05T21:40:30.663Z,7.82
2023-01-05T21:48:39.033Z,8.88
2023-01-05T21:56:45.777Z,10.45
2023-01-05T22:04:53.819Z,7.90
2023-01-05T22:13:06.293Z,9.55
2023-01-05T22:21:15.057Z,10.80
2023-01-05T22:29:20.499Z,10.98
2023-01-05T22:37:28.433Z,12.27
2023-01-05T22:45:35.552Z,12.25
2023-01-05T22:53:46.113Z,8.27
2023-01-05T23:01:51.547Z,7.32
2023-01-05T23:09:59.479Z,6.28
2023-01-05T23:18:04.889Z,7.28
2023-01-05T23:26:14.997Z,7.50
2023-01-05T23:34:20.430Z,6.90
2023-01-05T23:42:45.324Z,8.00
2023-01-05T23:50:51.384Z,11.20
2023-01-05T23:59:07.411Z,11.90
